createdAt,value
2022-12-29T00:00:18.941Z,7.68
2022-12-29T00:02:45.884Z,7.74
2022-12-29T00:05:12.774Z,7.65
2022-12-29T00:07:39.585Z,7.47
2022-12-29T00:10:07.083Z,7.37
2022-12-29T00:12:53.714Z,7.40
2022-12-29T00:15:39.049Z,7.49
2022-12-29T00:18:06.531Z,7.45
2022-12-29T00:20:56.569Z,7.60
2022-12-29T00:23:42.645Z,7.51
2022-12-29T00:26:32.835Z,7.55
2022-12-29T00:29:18.531Z,7.16
2022-12-29T00:32:03.846Z,7.19
2022-12-29T00:34:49.314Z,7.43
2022-12-29T00:37:16.766Z,7.59
2022-12-29T00:40:02.134Z,7.44
2022-12-29T00:42:47.380Z,7.40
2022-12-29T00:45:15.029Z,7.56
2022-12-29T00:47:41.716Z,6.92
2022-12-29T00:50:08.914Z,7.26
2022-12-29T00:52:35.656Z,7.45
2022-12-29T00:55:02.372Z,7.37
2022-12-29T00:57:29.101Z,7.65
2022-12-29T00:59:55.859Z,7.67
2022-12-29T01:02:22.696Z,7.48
2022-12-29T01:04:49.596Z,7.49
2022-12-29T01:07:16.798Z,7.38
2022-12-29T01:10:03.967Z,7.31
2022-12-29T01:12:42.653Z,7.26
2022-12-29T01:15:12.734Z,7.30
2022-12-29T01:17:39.546Z,7.54
2022-12-29T01:20:06.968Z,7.66
2022-12-29T01:22:34.172Z,7.60
2022-12-29T01:25:00.875Z,7.73
2022-12-29T01:27:27.584Z,7.78
2022-12-29T01:29:54.292Z,7.70
2022-12-29T01:32:22.106Z,7.76
2022-12-29T01:34:48.860Z,7.77
2022-12-29T01:37:15.666Z,7.64
2022-12-29T01:39:42.411Z,7.62
2022-12-29T01:42:20.286Z,7.51
2022-12-29T01:44:58.769Z,7.50
2022-12-29T01:47:51.381Z,7.43
2022-12-29T01:50:20.375Z,7.65
2022-12-29T01:52:59.762Z,7.52
2022-12-29T01:55:32.446Z,7.46
2022-12-29T01:58:03.397Z,7.60
2022-12-29T02:00:31.059Z,7.43
2022-12-29T02:02:58.000Z,7.46
2022-12-29T02:05:31.462Z,7.45
2022-12-29T02:07:58.741Z,7.49
2022-12-29T02:10:28.764Z,7.50
2022-12-29T02:12:57.237Z,7.49
2022-12-29T02:15:36.700Z,7.52
2022-12-29T02:18:35.111Z,7.62
2022-12-29T02:21:11.966Z,7.52
2022-12-29T02:23:51.049Z,7.45
2022-12-29T02:26:50.978Z,7.51
2022-12-29T02:30:03.049Z,7.39
2022-12-29T02:32:36.020Z,7.43
2022-12-29T02:35:18.159Z,7.60
2022-12-29T02:37:53.733Z,7.60
2022-12-29T02:40:26.782Z,7.65
2022-12-29T02:43:18.679Z,7.56
2022-12-29T02:46:19.605Z,7.55
2022-12-29T02:49:01.443Z,7.64
2022-12-29T02:51:51.526Z,7.64
2022-12-29T02:54:38.693Z,7.82
2022-12-29T02:57:30.698Z,7.86
2022-12-29T03:00:08.573Z,7.85
2022-12-29T03:02:54.244Z,7.75
2022-12-29T03:05:49.470Z,7.90
2022-12-29T03:08:43.691Z,7.72
2022-12-29T03:11:33.770Z,7.72
2022-12-29T03:14:39.447Z,7.72
2022-12-29T03:17:27.516Z,7.64
2022-12-29T03:20:00.374Z,7.74
2022-12-29T03:22:33.470Z,7.81
2022-12-29T03:25:23.536Z,7.78
2022-12-29T03:28:06.207Z,8.02
2022-12-29T03:30:41.361Z,7.72
2022-12-29T03:33:15.992Z,7.39
2022-12-29T03:35:45.209Z,7.38
2022-12-29T03:38:25.075Z,7.46
2022-12-29T03:40:56.792Z,7.37
2022-12-29T03:43:26.430Z,7.22
2022-12-29T03:45:53.303Z,7.13
2022-12-29T03:48:20.125Z,7.06
2022-12-29T03:50:48.967Z,7.04
2022-12-29T03:53:16.845Z,7.03
2022-12-29T03:55:43.760Z,7.09
2022-12-29T03:58:11.578Z,7.05
2022-12-29T04:00:51.009Z,6.85
2022-12-29T04:03:18.400Z,6.99
2022-12-29T04:05:45.449Z,7.04
2022-12-29T04:08:12.538Z,6.87
2022-12-29T04:10:39.756Z,6.79
2022-12-29T04:13:07.527Z,6.84
2022-12-29T04:15:35.645Z,6.67
2022-12-29T04:18:02.805Z,6.02
2022-12-29T04:20:47.855Z,6.42
2022-12-29T04:23:14.965Z,6.48
2022-12-29T04:25:41.825Z,6.30
2022-12-29T04:28:10.144Z,6.23
2022-12-29T04:31:09.558Z,6.11
2022-12-29T04:33:39.861Z,6.43
2022-12-29T04:36:07.426Z,6.52
2022-12-29T04:38:35.983Z,6.59
2022-12-29T04:41:05.244Z,6.65
2022-12-29T04:43:33.476Z,6.81
2022-12-29T04:46:09.817Z,6.76
2022-12-29T04:48:45.420Z,6.57
2022-12-29T04:51:38.548Z,6.70
2022-12-29T04:54:07.901Z,6.77
2022-12-29T04:56:35.524Z,6.70
2022-12-29T04:59:02.377Z,6.65
2022-12-29T05:01:29.215Z,6.69
2022-12-29T05:03:56.083Z,6.70
2022-12-29T05:06:24.171Z,6.51
2022-12-29T05:08:50.899Z,6.68
2022-12-29T05:11:18.719Z,6.80
2022-12-29T05:13:48.087Z,6.81
2022-12-29T05:16:16.853Z,6.75
2022-12-29T05:18:44.394Z,6.74
2022-12-29T05:21:11.311Z,6.86
2022-12-29T05:23:40.389Z,6.96
2022-12-29T05:26:07.230Z,6.84
2022-12-29T05:28:48.465Z,6.81
2022-12-29T05:31:19.253Z,6.92
2022-12-29T05:33:46.121Z,5.89
2022-12-29T05:36:14.257Z,6.04
2022-12-29T05:38:46.263Z,6.35
2022-12-29T05:41:13.730Z,6.40
2022-12-29T05:43:56.073Z,6.57
2022-12-29T05:46:44.682Z,6.72
2022-12-29T05:49:18.114Z,6.59
2022-12-29T05:52:42.448Z,6.68
2022-12-29T05:55:09.703Z,6.47
2022-12-29T05:57:38.083Z,6.48
2022-12-29T06:00:11.760Z,6.68
2022-12-29T06:02:47.211Z,6.77
2022-12-29T06:05:16.037Z,6.88
2022-12-29T06:07:43.227Z,6.74
2022-12-29T06:10:10.324Z,6.92
2022-12-29T06:12:50.815Z,6.95
2022-12-29T06:15:17.750Z,6.78
2022-12-29T06:17:46.056Z,6.79
2022-12-29T06:20:13.079Z,6.84
2022-12-29T06:22:40.231Z,6.82
2022-12-29T06:25:08.653Z,6.79
2022-12-29T06:27:36.288Z,6.78
2022-12-29T06:30:03.891Z,6.69
2022-12-29T06:32:30.813Z,6.84
2022-12-29T06:35:03.959Z,6.89
2022-12-29T06:37:31.197Z,7.02
2022-12-29T06:39:57.964Z,7.10
2022-12-29T06:42:30.971Z,7.39
2022-12-29T06:45:30.425Z,7.29
2022-12-29T06:47:57.386Z,7.10
2022-12-29T06:50:24.231Z,7.22
2022-12-29T06:52:50.966Z,7.32
2022-12-29T06:55:17.896Z,7.53
2022-12-29T06:57:44.681Z,7.72
2022-12-29T07:00:11.800Z,7.93
2022-12-29T07:02:38.723Z,7.99
2022-12-29T07:05:05.997Z,8.13
2022-12-29T07:07:32.761Z,8.25
2022-12-29T07:09:59.624Z,8.39
2022-12-29T07:12:26.594Z,8.59
2022-12-29T07:14:53.385Z,8.57
2022-12-29T07:17:20.270Z,8.74
2022-12-29T07:19:47.045Z,8.77
2022-12-29T07:22:13.745Z,8.86
2022-12-29T07:24:41.435Z,8.63
2022-12-29T07:27:08.218Z,8.85
2022-12-29T07:29:34.983Z,9.06
2022-12-29T07:32:01.769Z,9.20
2022-12-29T07:34:28.705Z,9.14
2022-12-29T07:36:55.441Z,9.20
2022-12-29T07:39:22.216Z,9.46
2022-12-29T07:41:49.205Z,9.50
2022-12-29T07:44:20.678Z,9.40
2022-12-29T07:46:56.513Z,9.60
2022-12-29T07:49:25.081Z,9.45
2022-12-29T07:51:52.036Z,9.49
2022-12-29T07:54:23.523Z,9.51
2022-12-29T07:56:51.364Z,9.89
2022-12-29T07:59:18.255Z,10.02
2022-12-29T08:01:45.400Z,10.19
2022-12-29T08:04:12.271Z,10.46
2022-12-29T08:06:39.352Z,10.54
2022-12-29T08:09:13.416Z,10.59
2022-12-29T08:11:44.474Z,10.41
2022-12-29T08:14:11.402Z,10.62
2022-12-29T08:16:39.220Z,10.78
2022-12-29T08:19:06.126Z,10.90
2022-12-29T08:21:33.201Z,11.10
2022-12-29T08:24:00.215Z,10.98
2022-12-29T08:26:27.121Z,10.96
2022-12-29T08:28:55.549Z,10.78
2022-12-29T08:31:23.672Z,11.09
2022-12-29T08:33:50.731Z,11.17
2022-12-29T08:36:18.120Z,11.15
2022-12-29T08:38:44.870Z,11.34
2022-12-29T08:41:11.740Z,11.44
2022-12-29T08:43:38.540Z,11.59
2022-12-29T08:46:05.372Z,12.00
2022-12-29T08:48:32.214Z,12.29
2022-12-29T08:50:59.022Z,12.62
2022-12-29T08:53:25.690Z,12.90
2022-12-29T08:56:05.163Z,13.32
2022-12-29T08:58:41.517Z,13.01
2022-12-29T09:01:10.807Z,13.43
2022-12-29T09:04:12.642Z,13.38
2022-12-29T09:06:24.988Z,13.67
2022-12-29T09:08:51.736Z,13.64
2022-12-29T09:11:24.339Z,13.70
2022-12-29T09:13:51.864Z,13.60
2022-12-29T09:16:19.240Z,14.06
2022-12-29T09:18:46.188Z,14.15
2022-12-29T09:21:14.976Z,13.63
2022-12-29T09:23:43.755Z,13.90
2022-12-29T09:26:10.911Z,13.78
2022-12-29T09:28:37.833Z,14.31
2022-12-29T09:31:05.230Z,13.91
2022-12-29T09:33:34.381Z,13.51
2022-12-29T09:36:01.427Z,13.94
2022-12-29T09:38:29.482Z,13.89
2022-12-29T09:41:09.495Z,14.26
2022-12-29T09:43:54.976Z,14.26
2022-12-29T09:46:30.690Z,14.28
2022-12-29T09:49:09.390Z,14.35
2022-12-29T09:51:39.077Z,14.26
2022-12-29T09:54:24.221Z,14.02
2022-12-29T09:56:53.159Z,14.12
2022-12-29T09:59:25.567Z,14.44
2022-12-29T10:02:07.045Z,14.64
2022-12-29T10:04:33.984Z,14.62
2022-12-29T10:07:30.673Z,14.02
2022-12-29T10:10:11.216Z,14.13
2022-12-29T10:12:53.124Z,13.95
2022-12-29T10:15:43.057Z,13.92
2022-12-29T10:18:19.642Z,13.79
2022-12-29T10:20:58.359Z,14.08
2022-12-29T10:23:30.645Z,14.25
2022-12-29T10:25:59.305Z,14.24
2022-12-29T10:28:52.015Z,14.46
2022-12-29T10:31:30.758Z,14.36
2022-12-29T10:34:02.476Z,13.80
2022-12-29T10:36:39.669Z,14.03
2022-12-29T10:39:06.296Z,13.69
2022-12-29T10:41:42.240Z,13.99
2022-12-29T10:44:14.536Z,14.16
2022-12-29T10:46:44.083Z,14.41
2022-12-29T10:49:21.568Z,14.50
2022-12-29T10:51:53.084Z,13.90
2022-12-29T10:54:28.982Z,13.93
2022-12-29T10:59:51.364Z,13.88
2022-12-29T11:02:52.322Z,14.19
2022-12-29T11:05:39.032Z,13.50
2022-12-29T11:08:11.776Z,13.35
2022-12-29T11:10:43.783Z,13.06
2022-12-29T11:13:17.798Z,13.49
2022-12-29T11:15:47.880Z,13.72
2022-12-29T11:18:34.323Z,13.94
2022-12-29T11:21:03.905Z,13.98
2022-12-29T11:23:34.615Z,13.77
2022-12-29T11:26:07.103Z,13.61
2022-12-29T11:28:34.441Z,13.13
2022-12-29T11:31:03.511Z,12.76
2022-12-29T11:33:31.123Z,12.70
2022-12-29T11:36:09.508Z,13.03
2022-12-29T11:38:40.842Z,13.08
2022-12-29T11:41:13.106Z,13.41
2022-12-29T11:43:44.521Z,13.66
2022-12-29T11:46:18.526Z,13.94
2022-12-29T11:48:47.726Z,14.04
2022-12-29T11:51:28.467Z,14.05
2022-12-29T11:54:01.947Z,14.28
2022-12-29T11:56:42.109Z,14.87
2022-12-29T11:59:37.677Z,15.96
2022-12-29T12:02:42.204Z,16.76
2022-12-29T12:05:23.750Z,15.43
2022-12-29T12:07:57.633Z,16.84
2022-12-29T12:10:31.261Z,16.76
2022-12-29T12:13:09.248Z,17.83
2022-12-29T12:15:47.446Z,17.90
2022-12-29T12:18:40.191Z,19.07
2022-12-29T12:21:17.381Z,19.81
2022-12-29T12:24:01.185Z,19.57
2022-12-29T12:26:58.001Z,18.78
2022-12-29T12:29:44.163Z,18.72
2022-12-29T12:32:16.763Z,18.48
2022-12-29T12:34:45.634Z,18.84
2022-12-29T12:37:40.270Z,19.08
2022-12-29T12:40:36.375Z,19.47
2022-12-29T12:43:34.020Z,20.64
2022-12-29T12:46:33.562Z,21.46
2022-12-29T12:49:25.551Z,21.13
2022-12-29T12:52:15.512Z,21.20
2022-12-29T12:55:19.219Z,21.57
2022-12-29T12:57:51.686Z,21.25
2022-12-29T13:00:20.669Z,20.15
2022-12-29T13:03:07.750Z,19.61
2022-12-29T13:06:08.020Z,19.48
2022-12-29T13:08:34.697Z,19.17
2022-12-29T13:11:10.503Z,19.03
2022-12-29T13:14:13.660Z,18.27
2022-12-29T13:16:58.525Z,18.55
2022-12-29T13:19:41.751Z,19.49
2022-12-29T13:22:19.808Z,19.69
2022-12-29T13:25:26.277Z,19.03
2022-12-29T13:28:01.988Z,17.21
2022-12-29T13:31:01.055Z,16.93
2022-12-29T13:33:39.721Z,16.37
2022-12-29T13:36:18.089Z,16.45
2022-12-29T13:38:49.908Z,15.83
2022-12-29T13:41:34.247Z,15.31
2022-12-29T13:44:04.693Z,14.97
2022-12-29T13:46:43.957Z,14.56
2022-12-29T13:49:21.950Z,14.55
2022-12-29T13:52:14.326Z,14.17
2022-12-29T13:55:17.012Z,13.80
2022-12-29T13:57:56.453Z,13.97
2022-12-29T14:00:25.976Z,14.02
2022-12-29T14:03:30.883Z,13.88
2022-12-29T14:06:30.252Z,13.81
2022-12-29T14:09:00.712Z,13.79
2022-12-29T14:11:39.499Z,13.74
2022-12-29T14:14:32.884Z,13.52
2022-12-29T14:17:15.285Z,13.71
2022-12-29T14:19:46.504Z,13.55
2022-12-29T14:22:13.862Z,13.31
2022-12-29T14:24:43.689Z,13.15
2022-12-29T14:27:10.448Z,12.88
2022-12-29T14:29:40.271Z,12.68
2022-12-29T14:32:22.587Z,12.73
2022-12-29T14:34:52.535Z,12.51
2022-12-29T14:37:32.026Z,12.18
2022-12-29T14:40:27.884Z,12.75
2022-12-29T14:42:58.489Z,12.90
2022-12-29T14:45:30.204Z,13.13
2022-12-29T14:47:57.765Z,12.94
2022-12-29T14:50:44.929Z,12.85
2022-12-29T14:53:44.045Z,12.74
2022-12-29T14:56:13.336Z,12.63
2022-12-29T14:59:00.926Z,12.49
2022-12-29T15:01:40.903Z,12.70
2022-12-29T15:04:16.122Z,12.79
2022-12-29T15:06:45.875Z,11.75
2022-12-29T15:09:37.476Z,12.26
2022-12-29T15:12:38.613Z,12.30
2022-12-29T15:15:25.575Z,11.77
2022-12-29T15:17:52.734Z,12.03
2022-12-29T15:20:31.464Z,11.76
2022-12-29T15:23:03.242Z,11.57
2022-12-29T15:25:31.918Z,11.62
2022-12-29T15:28:03.261Z,11.83
2022-12-29T15:30:30.145Z,12.00
2022-12-29T15:32:57.056Z,11.96
2022-12-29T15:35:53.635Z,11.98
2022-12-29T15:38:34.745Z,11.94
2022-12-29T15:41:16.487Z,11.71
2022-12-29T15:44:34.353Z,11.05
2022-12-29T15:47:06.671Z,11.26
2022-12-29T15:49:34.064Z,11.32
2022-12-29T15:52:00.931Z,11.61
2022-12-29T15:54:31.569Z,11.87
2022-12-29T15:56:58.270Z,12.08
2022-12-29T15:59:34.466Z,12.05
2022-12-29T16:02:10.117Z,11.97
2022-12-29T16:05:01.346Z,11.45
2022-12-29T16:07:37.281Z,11.50
2022-12-29T16:10:06.542Z,11.58
2022-12-29T16:12:39.339Z,11.50
2022-12-29T16:15:13.912Z,11.10
2022-12-29T16:17:53.927Z,11.31
2022-12-29T16:20:32.717Z,10.66
2022-12-29T16:23:00.923Z,10.69
2022-12-29T16:25:35.359Z,10.36
2022-12-29T16:28:04.592Z,10.30
2022-12-29T16:30:34.431Z,10.25
2022-12-29T16:33:06.566Z,10.48
2022-12-29T16:35:46.824Z,10.63
2022-12-29T16:38:15.597Z,10.63
2022-12-29T16:41:00.131Z,10.38
2022-12-29T16:43:35.212Z,10.36
2022-12-29T16:46:02.101Z,10.46
2022-12-29T16:48:32.543Z,10.35
2022-12-29T16:51:05.752Z,10.09
2022-12-29T16:53:41.488Z,10.11
2022-12-29T16:56:15.680Z,10.19
2022-12-29T16:58:49.146Z,9.99
2022-12-29T17:01:20.332Z,10.06
2022-12-29T17:03:57.888Z,9.69
2022-12-29T17:06:24.881Z,9.59
2022-12-29T17:08:52.756Z,9.76
2022-12-29T17:11:43.334Z,9.84
2022-12-29T17:14:34.606Z,9.47
2022-12-29T17:17:07.628Z,9.64
2022-12-29T17:19:37.474Z,9.77
2022-12-29T17:22:10.364Z,9.86
2022-12-29T17:24:37.201Z,9.72
2022-12-29T17:27:04.745Z,9.69
2022-12-29T17:29:36.623Z,9.60
2022-12-29T17:32:05.914Z,9.61
2022-12-29T17:34:33.816Z,9.11
2022-12-29T17:37:00.540Z,8.85
2022-12-29T17:39:27.626Z,8.73
2022-12-29T17:41:54.403Z,8.62
2022-12-29T17:44:21.863Z,8.81
2022-12-29T17:46:49.359Z,9.13
2022-12-29T17:49:18.153Z,8.95
2022-12-29T17:51:47.363Z,9.03
2022-12-29T17:54:25.946Z,9.12
2022-12-29T17:56:52.799Z,9.17
2022-12-29T17:59:19.977Z,9.27
2022-12-29T18:01:48.523Z,9.21
2022-12-29T18:04:20.173Z,8.72
2022-12-29T18:06:47.359Z,8.95
2022-12-29T18:09:14.929Z,9.00
2022-12-29T18:11:43.754Z,9.16
2022-12-29T18:14:15.313Z,9.16
2022-12-29T18:16:42.491Z,9.14
2022-12-29T18:19:09.524Z,9.26
2022-12-29T18:21:38.059Z,9.32
2022-12-29T18:24:05.322Z,9.11
2022-12-29T18:26:35.528Z,9.28
2022-12-29T18:29:02.264Z,9.38
2022-12-29T18:31:32.337Z,9.10
2022-12-29T18:34:01.839Z,8.79
2022-12-29T18:36:29.216Z,8.70
2022-12-29T18:38:56.082Z,8.87
2022-12-29T18:41:25.301Z,9.01
2022-12-29T18:43:52.241Z,9.08
2022-12-29T18:46:22.691Z,9.15
2022-12-29T18:48:53.959Z,9.15
2022-12-29T18:51:23.473Z,9.04
2022-12-29T18:53:53.772Z,9.01
2022-12-29T18:56:22.612Z,8.96
2022-12-29T18:58:50.052Z,9.05
2022-12-29T19:01:25.809Z,8.62
2022-12-29T19:03:52.875Z,8.86
2022-12-29T19:06:21.272Z,8.83
2022-12-29T19:08:48.078Z,8.60
2022-12-29T19:11:15.109Z,8.64
2022-12-29T19:13:41.815Z,8.84
2022-12-29T19:16:18.679Z,8.94
2022-12-29T19:18:50.854Z,8.95
2022-12-29T19:21:25.487Z,8.87
2022-12-29T19:23:53.186Z,8.42
2022-12-29T19:26:31.409Z,8.59
2022-12-29T19:28:59.697Z,8.81
2022-12-29T19:31:26.568Z,8.57
2022-12-29T19:33:55.122Z,8.68
2022-12-29T19:36:22.624Z,8.75
2022-12-29T19:38:49.647Z,8.65
2022-12-29T19:41:16.480Z,8.36
2022-12-29T19:43:43.337Z,8.54
2022-12-29T19:46:13.493Z,8.61
2022-12-29T19:48:41.168Z,8.53
2022-12-29T19:51:11.021Z,8.42
2022-12-29T19:53:38.179Z,8.58
2022-12-29T19:56:07.943Z,8.63
2022-12-29T19:58:36.188Z,8.33
2022-12-29T20:01:06.329Z,8.56
2022-12-29T20:03:33.876Z,8.61
2022-12-29T20:06:00.973Z,8.72
2022-12-29T20:08:27.804Z,8.61
2022-12-29T20:11:04.226Z,8.59
2022-12-29T20:13:35.657Z,8.44
2022-12-29T20:16:05.544Z,8.65
2022-12-29T20:18:32.563Z,8.92
2022-12-29T20:21:08.894Z,8.31
2022-12-29T20:23:38.815Z,8.31
2022-12-29T20:26:06.327Z,8.56
2022-12-29T20:28:33.162Z,8.71
2022-12-29T20:31:04.194Z,8.61
2022-12-29T20:33:32.188Z,8.37
2022-12-29T20:36:06.476Z,8.80
2022-12-29T20:38:33.437Z,8.73
2022-12-29T20:41:01.029Z,8.82
2022-12-29T20:43:27.870Z,8.52
2022-12-29T20:45:54.850Z,7.84
2022-12-29T20:48:21.854Z,8.51
2022-12-29T20:50:48.746Z,8.60
2022-12-29T20:53:15.480Z,7.86
2022-12-29T20:55:42.418Z,8.36
2022-12-29T20:58:25.311Z,8.57
2022-12-29T21:00:52.739Z,8.64
2022-12-29T21:03:19.754Z,8.68
2022-12-29T21:05:46.543Z,8.75
2022-12-29T21:08:13.310Z,8.65
2022-12-29T21:10:40.025Z,8.26
2022-12-29T21:13:06.805Z,8.54
2022-12-29T21:15:33.535Z,8.96
2022-12-29T21:18:01.355Z,8.47
2022-12-29T21:20:31.793Z,8.64
2022-12-29T21:23:00.784Z,8.59
2022-12-29T21:25:37.272Z,8.75
2022-12-29T21:28:08.729Z,8.59
2022-12-29T21:30:36.260Z,8.74
2022-12-29T21:33:03.354Z,8.44
2022-12-29T21:35:30.713Z,8.49
2022-12-29T21:37:57.471Z,8.45
2022-12-29T21:40:24.164Z,8.53
2022-12-29T21:42:51.130Z,8.55
2022-12-29T21:45:27.014Z,8.70
2022-12-29T21:48:13.984Z,8.02
2022-12-29T21:51:01.760Z,8.00
2022-12-29T21:53:40.571Z,8.44
2022-12-29T21:56:13.306Z,8.47
2022-12-29T21:59:03.927Z,8.32
2022-12-29T22:01:51.832Z,8.52
2022-12-29T22:04:39.749Z,8.71
2022-12-29T22:07:26.565Z,8.72
2022-12-29T22:10:11.894Z,8.72
2022-12-29T22:12:57.869Z,8.76
2022-12-29T22:15:25.891Z,8.74
2022-12-29T22:17:54.415Z,8.69
2022-12-29T22:20:25.054Z,8.69
2022-12-29T22:22:51.921Z,8.59
2022-12-29T22:25:19.226Z,8.63
2022-12-29T22:27:45.971Z,7.95
2022-12-29T22:30:13.897Z,7.72
2022-12-29T22:32:41.189Z,7.79
2022-12-29T22:35:09.704Z,7.96
2022-12-29T22:37:37.910Z,8.41
2022-12-29T22:40:05.997Z,8.64
2022-12-29T22:42:32.918Z,8.59
2022-12-29T22:44:59.647Z,8.44
2022-12-29T22:47:26.423Z,8.47
2022-12-29T22:49:53.115Z,8.50
2022-12-29T22:52:19.944Z,8.30
2022-12-29T22:54:46.727Z,8.48
2022-12-29T22:57:13.712Z,8.44
2022-12-29T22:59:40.472Z,8.36
2022-12-29T23:02:07.504Z,7.98
2022-12-29T23:05:02.342Z,8.25
2022-12-29T23:07:21.611Z,8.09
2022-12-29T23:09:48.387Z,7.94
2022-12-29T23:12:15.280Z,8.01
2022-12-29T23:14:42.000Z,7.96
2022-12-29T23:17:08.885Z,7.97
2022-12-29T23:19:35.825Z,7.84
2022-12-29T23:22:02.756Z,7.73
2022-12-29T23:24:29.497Z,8.01
2022-12-29T23:26:56.270Z,7.87
2022-12-29T23:29:23.080Z,8.12
2022-12-29T23:31:50.367Z,8.18
2022-12-29T23:34:17.643Z,8.10
2022-12-29T23:36:45.649Z,8.09
2022-12-29T23:39:19.061Z,8.15
2022-12-29T23:41:46.040Z,8.17
2022-12-29T23:44:12.742Z,8.30
2022-12-29T23:46:41.001Z,8.32
2022-12-29T23:49:09.507Z,8.09
2022-12-29T23:51:54.975Z,8.15
2022-12-29T23:54:21.685Z,8.37
2022-12-29T23:56:48.460Z,8.42
2022-12-29T23:59:15.215Z,8.44
